Íslenskir flugvellir

Veldu flugvelli í þeirri röð sem þeir eiga að birtast og styddu á hnappinn

Uppfært síðast 04.03.2024 - kl. 02:14

SIGMET síðustu 6 klst.

Engin SIGMET skeyti bárust síðustu 6 klst.

Egilsstaðir

METAR síðustu 3 klst

TímiSkeyti
2024-03-04 02.03METAR BIEG 040203Z 34006KT 260V030 9999 -RA OVC019 04/01 Q1001
2024-03-04 01.00METAR BIEG 040100Z 33012KT 9999 -RA OVC020 03/01 Q1002
2024-03-04 00.00METAR BIEG 040000Z 02013KT 350V050 9999 -RA FEW019 OVC027 03/01 Q1003

TAF

TAFBIEG2024-03-04 01.55Z04030336010KT 9999 -RA BKN015 TX07/0415Z TN00/0404Z TEMPO 0403/0406 3000 SNRA BKN008 TEMPO 0403/0404 04018G28KT BECMG 0410/0412 17015G25KT -SHRA BECMG 0423/0501 15005KT

Allur vindur er réttvísandi bæði í Metar og frá sjálfvirkum veðurstöðvum




Aðrir tengdir vefir



Þetta vefsvæði byggir á Eplica